Terminal Aerodrome Forecast
Issued by NWS Pueblo, CO

Home | Current Version | Previous Version | Text Only | Print | Product List | Glossary On
Versions: 1 2 3 4 5 6 7 8 9 10 11 12 13 14 15 16 17
000
FTUS45 KPUB 271122
TAFALS
TAF
KALS 271122Z 2712/2812 VRB05KT P6SM VCSH SCT020 BKN035
      TEMPO 2712/2713 5SM -SHRA SCT008 BKN015
     FM271600 32010KT P6SM VCSH BKN060
     FM272000 03012KT P6SM VCSH BKN060
     FM280000 32012KT P6SM VCSH BKN060
     FM280300 VRB06KT P6SM SCT100=

USA.gov is the U.S. government's official web portal to all federal, state and local government web resources and services.